sensor_id;sensor_type;location;lat;lon;timestamp;temperature;humidity
70456;DHT22;57916;51.996;5.180;2022-09-16T00:00:44;19.00;60.80
70456;DHT22;57916;51.996;5.180;2022-09-16T00:03:12;19.00;60.80
70456;DHT22;57916;51.996;5.180;2022-09-16T00:05:44;19.00;60.70
70456;DHT22;57916;51.996;5.180;2022-09-16T00:08:11;18.90;60.90
70456;DHT22;57916;51.996;5.180;2022-09-16T00:10:38;18.90;61.00
70456;DHT22;57916;51.996;5.180;2022-09-16T00:13:06;18.90;60.80
70456;DHT22;57916;51.996;5.180;2022-09-16T00:15:33;18.90;61.20
70456;DHT22;57916;51.996;5.180;2022-09-16T00:18:00;18.90;60.90
70456;DHT22;57916;51.996;5.180;2022-09-16T00:20:27;18.90;61.10
70456;DHT22;57916;51.996;5.180;2022-09-16T00:22:54;18.90;60.80
70456;DHT22;57916;51.996;5.180;2022-09-16T00:25:21;18.90;60.80
70456;DHT22;57916;51.996;5.180;2022-09-16T00:27:48;18.90;61.10
70456;DHT22;57916;51.996;5.180;2022-09-16T00:30:15;18.90;61.40
70456;DHT22;57916;51.996;5.180;2022-09-16T00:32:43;18.90;61.50
70456;DHT22;57916;51.996;5.180;2022-09-16T00:35:10;18.90;61.60
70456;DHT22;57916;51.996;5.180;2022-09-16T00:37:37;18.90;61.70
70456;DHT22;57916;51.996;5.180;2022-09-16T00:40:04;18.90;61.80
70456;DHT22;57916;51.996;5.180;2022-09-16T00:42:37;18.90;61.90
70456;DHT22;57916;51.996;5.180;2022-09-16T00:45:16;19.00;62.30
70456;DHT22;57916;51.996;5.180;2022-09-16T00:48:05;18.90;62.30
70456;DHT22;57916;51.996;5.180;2022-09-16T00:50:43;19.00;62.10
70456;DHT22;57916;51.996;5.180;2022-09-16T00:53:18;18.90;63.00
70456;DHT22;57916;51.996;5.180;2022-09-16T00:55:47;18.90;61.80
70456;DHT22;57916;51.996;5.180;2022-09-16T00:58:28;18.90;61.70
70456;DHT22;57916;51.996;5.180;2022-09-16T01:00:58;18.90;61.60
70456;DHT22;57916;51.996;5.180;2022-09-16T01:03:26;18.90;61.80
70456;DHT22;57916;51.996;5.180;2022-09-16T01:05:54;18.90;61.50
70456;DHT22;57916;51.996;5.180;2022-09-16T01:08:21;18.90;61.40
70456;DHT22;57916;51.996;5.180;2022-09-16T01:10:48;18.80;61.40
70456;DHT22;57916;51.996;5.180;2022-09-16T01:13:15;18.90;61.30
70456;DHT22;57916;51.996;5.180;2022-09-16T01:15:57;18.80;61.40
70456;DHT22;57916;51.996;5.180;2022-09-16T01:18:44;18.90;61.50
70456;DHT22;57916;51.996;5.180;2022-09-16T01:21:19;18.90;61.30
70456;DHT22;57916;51.996;5.180;2022-09-16T01:32:31;18.70;61.50
70456;DHT22;57916;51.996;5.180;2022-09-16T01:38:29;18.70;61.80
70456;DHT22;57916;51.996;5.180;2022-09-16T01:44:33;18.60;62.10
70456;DHT22;57916;51.996;5.180;2022-09-16T01:47:21;18.60;62.20
70456;DHT22;57916;51.996;5.180;2022-09-16T01:49:59;18.60;62.20
70456;DHT22;57916;51.996;5.180;2022-09-16T01:55:34;18.60;62.10
70456;DHT22;57916;51.996;5.180;2022-09-16T01:58:20;18.50;62.00
70456;DHT22;57916;51.996;5.180;2022-09-16T02:00:51;18.50;61.90
70456;DHT22;57916;51.996;5.180;2022-09-16T02:03:24;18.50;62.00
70456;DHT22;57916;51.996;5.180;2022-09-16T02:05:56;18.50;62.20
70456;DHT22;57916;51.996;5.180;2022-09-16T02:08:53;18.50;62.20
70456;DHT22;57916;51.996;5.180;2022-09-16T02:11:23;18.40;62.50
70456;DHT22;57916;51.996;5.180;2022-09-16T02:14:09;18.40;62.40
70456;DHT22;57916;51.996;5.180;2022-09-16T02:19:30;18.40;62.80
70456;DHT22;57916;51.996;5.180;2022-09-16T02:22:02;18.40;62.80
70456;DHT22;57916;51.996;5.180;2022-09-16T02:24:30;18.40;63.00
70456;DHT22;57916;51.996;5.180;2022-09-16T02:27:01;18.40;62.80
70456;DHT22;57916;51.996;5.180;2022-09-16T02:29:39;18.40;63.20
70456;DHT22;57916;51.996;5.180;2022-09-16T02:32:07;18.40;62.80
70456;DHT22;57916;51.996;5.180;2022-09-16T02:34:39;18.40;63.00
70456;DHT22;57916;51.996;5.180;2022-09-16T02:37:12;18.40;62.90
70456;DHT22;57916;51.996;5.180;2022-09-16T02:39:42;18.40;62.80
70456;DHT22;57916;51.996;5.180;2022-09-16T02:42:11;18.40;62.90
70456;DHT22;57916;51.996;5.180;2022-09-16T02:44:38;18.40;62.70
70456;DHT22;57916;51.996;5.180;2022-09-16T02:47:10;18.40;62.70
70456;DHT22;57916;51.996;5.180;2022-09-16T02:49:57;18.40;63.00
70456;DHT22;57916;51.996;5.180;2022-09-16T02:57:42;18.40;63.30
70456;DHT22;57916;51.996;5.180;2022-09-16T03:00:09;18.30;63.30
70456;DHT22;57916;51.996;5.180;2022-09-16T03:02:36;18.30;63.70
70456;DHT22;57916;51.996;5.180;2022-09-16T03:05:04;18.30;63.50
70456;DHT22;57916;51.996;5.180;2022-09-16T03:07:33;18.30;64.30
70456;DHT22;57916;51.996;5.180;2022-09-16T03:10:00;18.30;63.50
70456;DHT22;57916;51.996;5.180;2022-09-16T03:12:40;18.30;63.60
70456;DHT22;57916;51.996;5.180;2022-09-16T03:24:23;18.20;63.50
70456;DHT22;57916;51.996;5.180;2022-09-16T03:27:07;18.20;63.50
70456;DHT22;57916;51.996;5.180;2022-09-16T03:29:39;18.20;63.50
70456;DHT22;57916;51.996;5.180;2022-09-16T03:37:15;18.10;64.10
70456;DHT22;57916;51.996;5.180;2022-09-16T03:40:07;18.10;64.00
70456;DHT22;57916;51.996;5.180;2022-09-16T03:42:38;18.10;64.00
70456;DHT22;57916;51.996;5.180;2022-09-16T03:45:06;18.10;64.00
70456;DHT22;57916;51.996;5.180;2022-09-16T03:47:33;18.00;64.80
70456;DHT22;57916;51.996;5.180;2022-09-16T03:50:00;18.00;64.00
70456;DHT22;57916;51.996;5.180;2022-09-16T03:52:28;18.00;64.60
70456;DHT22;57916;51.996;5.180;2022-09-16T03:54:55;18.00;64.60
70456;DHT22;57916;51.996;5.180;2022-09-16T03:57:22;18.00;64.70
70456;DHT22;57916;51.996;5.180;2022-09-16T03:59:49;17.90;65.20
70456;DHT22;57916;51.996;5.180;2022-09-16T04:02:15;18.00;64.80
70456;DHT22;57916;51.996;5.180;2022-09-16T04:04:42;18.00;64.40
70456;DHT22;57916;51.996;5.180;2022-09-16T04:07:09;18.00;64.00
70456;DHT22;57916;51.996;5.180;2022-09-16T04:09:36;18.00;64.00
70456;DHT22;57916;51.996;5.180;2022-09-16T04:12:03;18.00;64.30
70456;DHT22;57916;51.996;5.180;2022-09-16T04:14:33;18.00;64.10
70456;DHT22;57916;51.996;5.180;2022-09-16T04:17:01;18.00;64.70
70456;DHT22;57916;51.996;5.180;2022-09-16T04:19:28;18.00;64.10
70456;DHT22;57916;51.996;5.180;2022-09-16T04:21:55;18.00;65.00
70456;DHT22;57916;51.996;5.180;2022-09-16T04:24:22;18.10;64.20
70456;DHT22;57916;51.996;5.180;2022-09-16T04:26:49;18.00;64.20
70456;DHT22;57916;51.996;5.180;2022-09-16T04:29:16;18.00;63.90
70456;DHT22;57916;51.996;5.180;2022-09-16T04:31:43;18.00;63.90
70456;DHT22;57916;51.996;5.180;2022-09-16T04:34:10;18.00;63.80
70456;DHT22;57916;51.996;5.180;2022-09-16T04:36:37;18.00;63.40
70456;DHT22;57916;51.996;5.180;2022-09-16T04:39:05;17.90;63.70
70456;DHT22;57916;51.996;5.180;2022-09-16T04:41:32;17.90;63.70
70456;DHT22;57916;51.996;5.180;2022-09-16T04:43:59;17.90;63.50
70456;DHT22;57916;51.996;5.180;2022-09-16T04:46:28;17.90;63.70
70456;DHT22;57916;51.996;5.180;2022-09-16T04:48:56;17.90;63.40
70456;DHT22;57916;51.996;5.180;2022-09-16T04:51:23;17.90;63.60
70456;DHT22;57916;51.996;5.180;2022-09-16T04:53:55;17.90;63.50
70456;DHT22;57916;51.996;5.180;2022-09-16T04:56:25;17.80;63.40
70456;DHT22;57916;51.996;5.180;2022-09-16T04:58:54;17.90;63.30
70456;DHT22;57916;51.996;5.180;2022-09-16T05:01:24;17.80;63.20
70456;DHT22;57916;51.996;5.180;2022-09-16T05:03:54;17.80;63.00
70456;DHT22;57916;51.996;5.180;2022-09-16T05:06:23;17.80;63.10
70456;DHT22;57916;51.996;5.180;2022-09-16T05:08:51;17.80;62.90
70456;DHT22;57916;51.996;5.180;2022-09-16T05:11:21;17.80;62.90
70456;DHT22;57916;51.996;5.180;2022-09-16T05:13:49;17.70;63.20
70456;DHT22;57916;51.996;5.180;2022-09-16T05:16:18;17.70;63.80
70456;DHT22;57916;51.996;5.180;2022-09-16T05:18:46;17.70;64.30
70456;DHT22;57916;51.996;5.180;2022-09-16T05:21:16;17.70;63.80
70456;DHT22;57916;51.996;5.180;2022-09-16T05:23:44;17.70;63.30
70456;DHT22;57916;51.996;5.180;2022-09-16T05:26:14;17.60;63.00
70456;DHT22;57916;51.996;5.180;2022-09-16T05:28:41;17.60;63.00
70456;DHT22;57916;51.996;5.180;2022-09-16T05:31:21;17.50;63.20
70456;DHT22;57916;51.996;5.180;2022-09-16T05:36:20;17.50;63.70
70456;DHT22;57916;51.996;5.180;2022-09-16T05:38:47;17.50;64.00
70456;DHT22;57916;51.996;5.180;2022-09-16T05:41:35;17.50;64.20
70456;DHT22;57916;51.996;5.180;2022-09-16T05:44:03;17.50;64.30
70456;DHT22;57916;51.996;5.180;2022-09-16T05:46:30;17.50;64.00
70456;DHT22;57916;51.996;5.180;2022-09-16T05:48:57;17.50;63.90
70456;DHT22;57916;51.996;5.180;2022-09-16T05:51:24;17.50;63.80
70456;DHT22;57916;51.996;5.180;2022-09-16T05:53:52;17.50;63.70
70456;DHT22;57916;51.996;5.180;2022-09-16T05:56:22;17.50;63.60
70456;DHT22;57916;51.996;5.180;2022-09-16T05:58:52;17.50;63.30
70456;DHT22;57916;51.996;5.180;2022-09-16T06:01:22;17.50;63.30
70456;DHT22;57916;51.996;5.180;2022-09-16T06:03:50;17.50;64.10
70456;DHT22;57916;51.996;5.180;2022-09-16T06:06:26;17.50;63.30
70456;DHT22;57916;51.996;5.180;2022-09-16T06:08:58;17.50;63.30
70456;DHT22;57916;51.996;5.180;2022-09-16T06:11:27;17.50;63.30
70456;DHT22;57916;51.996;5.180;2022-09-16T06:13:59;17.50;63.80
70456;DHT22;57916;51.996;5.180;2022-09-16T06:16:28;17.60;63.70
70456;DHT22;57916;51.996;5.180;2022-09-16T06:19:00;17.70;64.00
70456;DHT22;57916;51.996;5.180;2022-09-16T06:21:27;17.90;64.00
70456;DHT22;57916;51.996;5.180;2022-09-16T06:23:55;18.10;63.30
70456;DHT22;57916;51.996;5.180;2022-09-16T06:26:24;18.30;62.60
70456;DHT22;57916;51.996;5.180;2022-09-16T06:28:52;18.50;61.80
70456;DHT22;57916;51.996;5.180;2022-09-16T06:31:21;18.50;61.00
70456;DHT22;57916;51.996;5.180;2022-09-16T06:33:49;18.50;60.80
70456;DHT22;57916;51.996;5.180;2022-09-16T06:36:21;18.50;61.20
70456;DHT22;57916;51.996;5.180;2022-09-16T06:38:48;18.60;61.60
70456;DHT22;57916;51.996;5.180;2022-09-16T06:41:17;19.00;61.40
70456;DHT22;57916;51.996;5.180;2022-09-16T06:43:44;19.50;60.60
70456;DHT22;57916;51.996;5.180;2022-09-16T06:46:19;19.90;59.90
70456;DHT22;57916;51.996;5.180;2022-09-16T06:48:49;20.50;57.90
70456;DHT22;57916;51.996;5.180;2022-09-16T06:51:21;21.00;57.00
70456;DHT22;57916;51.996;5.180;2022-09-16T06:53:49;21.50;56.00
70456;DHT22;57916;51.996;5.180;2022-09-16T06:56:19;22.00;54.30
70456;DHT22;57916;51.996;5.180;2022-09-16T06:58:48;22.30;52.70
70456;DHT22;57916;51.996;5.180;2022-09-16T07:01:24;22.40;51.00
70456;DHT22;57916;51.996;5.180;2022-09-16T07:03:52;22.30;51.30
70456;DHT22;57916;51.996;5.180;2022-09-16T07:06:21;22.10;51.40
70456;DHT22;57916;51.996;5.180;2022-09-16T07:09:04;21.90;52.00
70456;DHT22;57916;51.996;5.180;2022-09-16T07:11:31;21.80;53.80
70456;DHT22;57916;51.996;5.180;2022-09-16T07:13:58;21.70;52.90
70456;DHT22;57916;51.996;5.180;2022-09-16T07:16:26;21.60;53.00
70456;DHT22;57916;51.996;5.180;2022-09-16T07:18:54;21.60;53.50
70456;DHT22;57916;51.996;5.180;2022-09-16T07:21:27;21.50;53.60
70456;DHT22;57916;51.996;5.180;2022-09-16T07:23:58;21.40;53.50
70456;DHT22;57916;51.996;5.180;2022-09-16T07:26:27;21.40;55.50
70456;DHT22;57916;51.996;5.180;2022-09-16T07:28:57;21.50;56.30
70456;DHT22;57916;51.996;5.180;2022-09-16T07:31:26;21.80;55.90
70456;DHT22;57916;51.996;5.180;2022-09-16T07:33:57;22.20;54.50
70456;DHT22;57916;51.996;5.180;2022-09-16T07:36:32;22.70;53.70
70456;DHT22;57916;51.996;5.180;2022-09-16T07:38:59;23.20;51.60
70456;DHT22;57916;51.996;5.180;2022-09-16T07:41:28;23.60;50.90
70456;DHT22;57916;51.996;5.180;2022-09-16T07:43:57;24.00;48.70
70456;DHT22;57916;51.996;5.180;2022-09-16T07:46:30;24.40;47.20
70456;DHT22;57916;51.996;5.180;2022-09-16T07:48:59;24.80;45.60
70456;DHT22;57916;51.996;5.180;2022-09-16T07:51:27;25.20;46.00
70456;DHT22;57916;51.996;5.180;2022-09-16T07:53:56;25.60;45.70
70456;DHT22;57916;51.996;5.180;2022-09-16T07:56:26;25.90;43.00
70456;DHT22;57916;51.996;5.180;2022-09-16T07:58:55;26.20;42.70
70456;DHT22;57916;51.996;5.180;2022-09-16T08:01:23;26.50;42.00
70456;DHT22;57916;51.996;5.180;2022-09-16T08:03:54;26.80;42.20
70456;DHT22;57916;51.996;5.180;2022-09-16T08:06:23;27.00;40.60
70456;DHT22;57916;51.996;5.180;2022-09-16T08:08:52;27.10;41.10
70456;DHT22;57916;51.996;5.180;2022-09-16T08:11:20;27.20;41.90
70456;DHT22;57916;51.996;5.180;2022-09-16T08:13:47;27.30;40.60
70456;DHT22;57916;51.996;5.180;2022-09-16T08:16:17;27.10;37.90
70456;DHT22;57916;51.996;5.180;2022-09-16T08:18:45;26.70;38.50
70456;DHT22;57916;51.996;5.180;2022-09-16T08:21:24;26.20;40.00
70456;DHT22;57916;51.996;5.180;2022-09-16T08:23:51;25.70;39.60
70456;DHT22;57916;51.996;5.180;2022-09-16T08:26:21;24.90;38.90
70456;DHT22;57916;51.996;5.180;2022-09-16T08:28:48;24.20;40.50
70456;DHT22;57916;51.996;5.180;2022-09-16T08:31:34;23.60;42.90
70456;DHT22;57916;51.996;5.180;2022-09-16T08:34:01;23.10;44.20
70456;DHT22;57916;51.996;5.180;2022-09-16T08:36:28;22.70;45.60
70456;DHT22;57916;51.996;5.180;2022-09-16T08:38:55;22.40;46.40
70456;DHT22;57916;51.996;5.180;2022-09-16T08:49:39;21.50;48.60
70456;DHT22;57916;51.996;5.180;2022-09-16T08:52:25;21.40;50.60
70456;DHT22;57916;51.996;5.180;2022-09-16T08:55:14;21.30;51.00
70456;DHT22;57916;51.996;5.180;2022-09-16T08:57:52;21.30;53.30
70456;DHT22;57916;51.996;5.180;2022-09-16T09:00:22;21.50;53.80
70456;DHT22;57916;51.996;5.180;2022-09-16T09:03:01;21.90;52.50
70456;DHT22;57916;51.996;5.180;2022-09-16T09:10:54;22.70;48.40
70456;DHT22;57916;51.996;5.180;2022-09-16T09:19:33;22.90;49.20
70456;DHT22;57916;51.996;5.180;2022-09-16T09:30:23;22.00;49.10
70456;DHT22;57916;51.996;5.180;2022-09-16T09:41:45;21.60;52.20
70456;DHT22;57916;51.996;5.180;2022-09-16T09:47:09;21.70;50.60
70456;DHT22;57916;51.996;5.180;2022-09-16T09:49:47;21.80;52.70
70456;DHT22;57916;51.996;5.180;2022-09-16T09:54:48;22.50;50.70
70456;DHT22;57916;51.996;5.180;2022-09-16T09:59:59;23.30;50.10
70456;DHT22;57916;51.996;5.180;2022-09-16T10:02:26;23.60;48.00
70456;DHT22;57916;51.996;5.180;2022-09-16T10:04:53;23.90;45.80
70456;DHT22;57916;51.996;5.180;2022-09-16T10:07:23;24.20;47.40
70456;DHT22;57916;51.996;5.180;2022-09-16T10:09:58;24.60;47.40
70456;DHT22;57916;51.996;5.180;2022-09-16T10:12:41;25.00;45.30
70456;DHT22;57916;51.996;5.180;2022-09-16T10:15:29;25.30;44.40
70456;DHT22;57916;51.996;5.180;2022-09-16T10:17:58;25.50;44.00
70456;DHT22;57916;51.996;5.180;2022-09-16T10:23:02;26.10;41.50
70456;DHT22;57916;51.996;5.180;2022-09-16T10:25:31;26.20;40.20
70456;DHT22;57916;51.996;5.180;2022-09-16T10:28:04;26.30;39.80
70456;DHT22;57916;51.996;5.180;2022-09-16T10:30:45;26.40;41.00
70456;DHT22;57916;51.996;5.180;2022-09-16T10:33:32;26.20;39.10
70456;DHT22;57916;51.996;5.180;2022-09-16T10:36:04;26.00;39.50
70456;DHT22;57916;51.996;5.180;2022-09-16T10:38:38;25.40;40.70
70456;DHT22;57916;51.996;5.180;2022-09-16T10:41:18;24.70;41.30
70456;DHT22;57916;51.996;5.180;2022-09-16T10:44:15;24.00;45.60
70456;DHT22;57916;51.996;5.180;2022-09-16T10:47:04;23.60;45.50
70456;DHT22;57916;51.996;5.180;2022-09-16T10:49:39;23.20;46.50
70456;DHT22;57916;51.996;5.180;2022-09-16T10:52:20;22.90;46.10
70456;DHT22;57916;51.996;5.180;2022-09-16T10:54:48;22.60;46.10
70456;DHT22;57916;51.996;5.180;2022-09-16T10:57:30;22.30;46.10
70456;DHT22;57916;51.996;5.180;2022-09-16T11:16:45;21.60;54.20
70456;DHT22;57916;51.996;5.180;2022-09-16T11:22:15;22.20;55.20
70456;DHT22;57916;51.996;5.180;2022-09-16T11:24:57;22.60;53.90
70456;DHT22;57916;51.996;5.180;2022-09-16T11:28:26;22.90;51.20
70456;DHT22;57916;51.996;5.180;2022-09-16T11:30:29;23.30;52.40
70456;DHT22;57916;51.996;5.180;2022-09-16T11:38:14;24.10;48.00
70456;DHT22;57916;51.996;5.180;2022-09-16T11:46:31;23.70;47.40
70456;DHT22;57916;51.996;5.180;2022-09-16T11:49:11;23.50;47.90
70456;DHT22;57916;51.996;5.180;2022-09-16T11:51:50;23.30;49.10
70456;DHT22;57916;51.996;5.180;2022-09-16T11:54:43;23.00;49.70
70456;DHT22;57916;51.996;5.180;2022-09-16T11:57:25;22.70;49.60
70456;DHT22;57916;51.996;5.180;2022-09-16T12:00:10;22.60;50.10
70456;DHT22;57916;51.996;5.180;2022-09-16T12:02:50;22.50;50.50
70456;DHT22;57916;51.996;5.180;2022-09-16T12:08:18;22.50;49.40
70456;DHT22;57916;51.996;5.180;2022-09-16T12:11:01;22.40;49.00
70456;DHT22;57916;51.996;5.180;2022-09-16T12:13:44;22.40;49.60
70456;DHT22;57916;51.996;5.180;2022-09-16T12:16:17;22.30;49.90
70456;DHT22;57916;51.996;5.180;2022-09-16T12:18:55;22.30;49.20
70456;DHT22;57916;51.996;5.180;2022-09-16T12:24:18;22.30;49.30
70456;DHT22;57916;51.996;5.180;2022-09-16T12:26:54;22.30;52.20
70456;DHT22;57916;51.996;5.180;2022-09-16T12:29:39;22.30;50.80
70456;DHT22;57916;51.996;5.180;2022-09-16T12:32:12;22.30;49.40
70456;DHT22;57916;51.996;5.180;2022-09-16T12:34:44;22.20;50.50
70456;DHT22;57916;51.996;5.180;2022-09-16T12:37:28;22.20;51.30
70456;DHT22;57916;51.996;5.180;2022-09-16T12:39:59;22.20;53.10
70456;DHT22;57916;51.996;5.180;2022-09-16T12:42:44;22.20;52.00
70456;DHT22;57916;51.996;5.180;2022-09-16T12:45:45;22.20;52.40
70456;DHT22;57916;51.996;5.180;2022-09-16T12:48:30;22.20;50.40
70456;DHT22;57916;51.996;5.180;2022-09-16T13:02:15;21.70;53.30
70456;DHT22;57916;51.996;5.180;2022-09-16T13:04:46;21.70;53.90
70456;DHT22;57916;51.996;5.180;2022-09-16T13:07:33;21.70;55.50
70456;DHT22;57916;51.996;5.180;2022-09-16T13:10:16;21.60;55.20
70456;DHT22;57916;51.996;5.180;2022-09-16T13:12:53;21.60;54.00
70456;DHT22;57916;51.996;5.180;2022-09-16T13:15:29;21.50;54.90
70456;DHT22;57916;51.996;5.180;2022-09-16T13:20:50;21.50;55.60
70456;DHT22;57916;51.996;5.180;2022-09-16T13:23:28;21.50;55.40
70456;DHT22;57916;51.996;5.180;2022-09-16T13:26:06;21.40;55.60
70456;DHT22;57916;51.996;5.180;2022-09-16T13:28:35;21.50;55.20
70456;DHT22;57916;51.996;5.180;2022-09-16T13:34:14;21.50;52.60
70456;DHT22;57916;51.996;5.180;2022-09-16T13:36:41;21.40;54.60
70456;DHT22;57916;51.996;5.180;2022-09-16T13:39:14;21.40;53.90
70456;DHT22;57916;51.996;5.180;2022-09-16T13:41:44;21.50;52.90
70456;DHT22;57916;51.996;5.180;2022-09-16T13:46:53;21.50;53.10
70456;DHT22;57916;51.996;5.180;2022-09-16T13:49:24;21.40;54.30
70456;DHT22;57916;51.996;5.180;2022-09-16T13:51:53;21.40;52.30
70456;DHT22;57916;51.996;5.180;2022-09-16T13:54:27;21.40;54.00
70456;DHT22;57916;51.996;5.180;2022-09-16T14:00:21;21.30;51.30
70456;DHT22;57916;51.996;5.180;2022-09-16T14:11:00;21.10;53.60
70456;DHT22;57916;51.996;5.180;2022-09-16T14:13:47;21.10;53.20
70456;DHT22;57916;51.996;5.180;2022-09-16T14:16:21;20.90;52.60
70456;DHT22;57916;51.996;5.180;2022-09-16T14:19:26;20.80;53.10
70456;DHT22;57916;51.996;5.180;2022-09-16T14:22:14;20.70;53.40
70456;DHT22;57916;51.996;5.180;2022-09-16T14:24:44;20.60;53.50
70456;DHT22;57916;51.996;5.180;2022-09-16T14:30:15;20.60;54.40
70456;DHT22;57916;51.996;5.180;2022-09-16T14:32:46;20.50;54.70
70456;DHT22;57916;51.996;5.180;2022-09-16T14:35:23;20.60;55.60
70456;DHT22;57916;51.996;5.180;2022-09-16T14:37:56;20.60;55.50
70456;DHT22;57916;51.996;5.180;2022-09-16T14:40:25;20.70;55.00
70456;DHT22;57916;51.996;5.180;2022-09-16T14:43:03;20.70;55.20
70456;DHT22;57916;51.996;5.180;2022-09-16T14:45:31;20.80;55.10
70456;DHT22;57916;51.996;5.180;2022-09-16T14:48:05;20.80;54.60
70456;DHT22;57916;51.996;5.180;2022-09-16T14:50:39;20.80;53.20
70456;DHT22;57916;51.996;5.180;2022-09-16T14:53:29;20.80;53.50
70456;DHT22;57916;51.996;5.180;2022-09-16T14:56:03;20.80;53.70
70456;DHT22;57916;51.996;5.180;2022-09-16T14:58:31;20.90;54.10
70456;DHT22;57916;51.996;5.180;2022-09-16T15:01:07;21.00;54.50
70456;DHT22;57916;51.996;5.180;2022-09-16T15:03:53;21.00;51.60
70456;DHT22;57916;51.996;5.180;2022-09-16T15:06:27;20.90;48.80
70456;DHT22;57916;51.996;5.180;2022-09-16T15:09:04;20.80;47.80
70456;DHT22;57916;51.996;5.180;2022-09-16T15:11:44;20.60;48.20
70456;DHT22;57916;51.996;5.180;2022-09-16T15:14:15;20.50;49.10
70456;DHT22;57916;51.996;5.180;2022-09-16T15:16:47;20.40;47.30
70456;DHT22;57916;51.996;5.180;2022-09-16T15:19:24;20.30;48.80
70456;DHT22;57916;51.996;5.180;2022-09-16T15:21:52;20.20;48.60
70456;DHT22;57916;51.996;5.180;2022-09-16T15:24:28;20.10;49.30
70456;DHT22;57916;51.996;5.180;2022-09-16T15:26:57;20.10;49.40
70456;DHT22;57916;51.996;5.180;2022-09-16T15:29:33;20.10;50.20
70456;DHT22;57916;51.996;5.180;2022-09-16T15:32:20;20.10;50.10
70456;DHT22;57916;51.996;5.180;2022-09-16T15:35:11;20.20;49.20
70456;DHT22;57916;51.996;5.180;2022-09-16T15:37:39;20.30;49.30
70456;DHT22;57916;51.996;5.180;2022-09-16T15:45:35;20.40;50.60
70456;DHT22;57916;51.996;5.180;2022-09-16T15:48:14;20.40;49.40
70456;DHT22;57916;51.996;5.180;2022-09-16T15:50:46;20.40;48.60
70456;DHT22;57916;51.996;5.180;2022-09-16T15:56:01;20.30;46.90
70456;DHT22;57916;51.996;5.180;2022-09-16T15:58:56;20.20;47.40
70456;DHT22;57916;51.996;5.180;2022-09-16T16:04:01;20.10;48.20
70456;DHT22;57916;51.996;5.180;2022-09-16T16:09:38;20.10;48.20
70456;DHT22;57916;51.996;5.180;2022-09-16T16:12:09;20.10;47.30
70456;DHT22;57916;51.996;5.180;2022-09-16T16:14:37;20.10;47.30
70456;DHT22;57916;51.996;5.180;2022-09-16T16:17:10;20.10;47.10
70456;DHT22;57916;51.996;5.180;2022-09-16T16:19:44;20.00;46.70
70456;DHT22;57916;51.996;5.180;2022-09-16T16:22:12;20.00;46.60
70456;DHT22;57916;51.996;5.180;2022-09-16T16:24:39;20.00;47.90
70456;DHT22;57916;51.996;5.180;2022-09-16T16:27:07;20.00;47.10
70456;DHT22;57916;51.996;5.180;2022-09-16T16:29:34;19.90;47.10
70456;DHT22;57916;51.996;5.180;2022-09-16T16:32:12;19.80;48.60
70456;DHT22;57916;51.996;5.180;2022-09-16T16:34:45;19.80;48.00
70456;DHT22;57916;51.996;5.180;2022-09-16T16:37:14;19.80;48.60
70456;DHT22;57916;51.996;5.180;2022-09-16T16:40:06;19.80;47.80
70456;DHT22;57916;51.996;5.180;2022-09-16T16:42:33;19.70;48.80
70456;DHT22;57916;51.996;5.180;2022-09-16T16:45:01;19.70;49.10
70456;DHT22;57916;51.996;5.180;2022-09-16T16:47:28;19.60;48.30
70456;DHT22;57916;51.996;5.180;2022-09-16T16:49:55;19.60;48.80
70456;DHT22;57916;51.996;5.180;2022-09-16T16:52:23;19.70;48.70
70456;DHT22;57916;51.996;5.180;2022-09-16T16:54:50;19.60;48.80
70456;DHT22;57916;51.996;5.180;2022-09-16T16:57:17;19.70;48.60
70456;DHT22;57916;51.996;5.180;2022-09-16T16:59:44;19.60;48.50
70456;DHT22;57916;51.996;5.180;2022-09-16T17:02:11;19.50;46.60
70456;DHT22;57916;51.996;5.180;2022-09-16T17:04:38;19.40;46.10
70456;DHT22;57916;51.996;5.180;2022-09-16T17:07:04;19.30;46.30
70456;DHT22;57916;51.996;5.180;2022-09-16T17:09:52;19.30;46.50
70456;DHT22;57916;51.996;5.180;2022-09-16T17:12:18;19.30;47.10
70456;DHT22;57916;51.996;5.180;2022-09-16T17:14:45;19.20;49.70
70456;DHT22;57916;51.996;5.180;2022-09-16T17:17:12;19.20;50.70
70456;DHT22;57916;51.996;5.180;2022-09-16T17:19:39;19.10;51.50
70456;DHT22;57916;51.996;5.180;2022-09-16T17:22:06;19.10;52.20
70456;DHT22;57916;51.996;5.180;2022-09-16T17:24:33;19.20;53.10
70456;DHT22;57916;51.996;5.180;2022-09-16T17:27:01;19.20;52.90
70456;DHT22;57916;51.996;5.180;2022-09-16T17:29:28;19.20;53.40
70456;DHT22;57916;51.996;5.180;2022-09-16T17:31:55;19.20;52.20
70456;DHT22;57916;51.996;5.180;2022-09-16T17:34:23;19.20;52.90
70456;DHT22;57916;51.996;5.180;2022-09-16T17:36:52;19.20;53.10
70456;DHT22;57916;51.996;5.180;2022-09-16T17:39:20;19.30;53.60
70456;DHT22;57916;51.996;5.180;2022-09-16T17:41:48;19.30;54.20
70456;DHT22;57916;51.996;5.180;2022-09-16T17:44:17;19.30;53.80
70456;DHT22;57916;51.996;5.180;2022-09-16T17:46:45;19.20;53.60
70456;DHT22;57916;51.996;5.180;2022-09-16T17:49:21;19.20;53.50
70456;DHT22;57916;51.996;5.180;2022-09-16T17:51:49;19.20;53.70
70456;DHT22;57916;51.996;5.180;2022-09-16T17:54:17;19.20;55.20
70456;DHT22;57916;51.996;5.180;2022-09-16T17:56:44;19.20;55.20
70456;DHT22;57916;51.996;5.180;2022-09-16T17:59:15;19.10;55.00
70456;DHT22;57916;51.996;5.180;2022-09-16T18:01:42;19.10;55.00
70456;DHT22;57916;51.996;5.180;2022-09-16T18:04:09;19.10;54.80
70456;DHT22;57916;51.996;5.180;2022-09-16T18:06:44;19.10;54.30
70456;DHT22;57916;51.996;5.180;2022-09-16T18:09:12;19.00;54.40
70456;DHT22;57916;51.996;5.180;2022-09-16T18:11:39;18.90;54.90
70456;DHT22;57916;51.996;5.180;2022-09-16T18:14:09;18.90;54.00
70456;DHT22;57916;51.996;5.180;2022-09-16T18:16:36;18.80;54.40
70456;DHT22;57916;51.996;5.180;2022-09-16T18:19:03;18.80;53.70
70456;DHT22;57916;51.996;5.180;2022-09-16T18:21:31;18.80;54.00
70456;DHT22;57916;51.996;5.180;2022-09-16T18:24:01;18.80;54.40
70456;DHT22;57916;51.996;5.180;2022-09-16T18:26:29;18.80;55.50
70456;DHT22;57916;51.996;5.180;2022-09-16T18:28:56;18.70;54.80
70456;DHT22;57916;51.996;5.180;2022-09-16T18:31:41;18.70;54.80
70456;DHT22;57916;51.996;5.180;2022-09-16T18:34:08;18.70;54.80
70456;DHT22;57916;51.996;5.180;2022-09-16T18:36:36;18.70;54.30
70456;DHT22;57916;51.996;5.180;2022-09-16T18:39:06;18.60;54.10
70456;DHT22;57916;51.996;5.180;2022-09-16T18:41:36;18.50;52.90
70456;DHT22;57916;51.996;5.180;2022-09-16T18:44:11;18.40;53.60
70456;DHT22;57916;51.996;5.180;2022-09-16T18:46:39;18.30;55.30
70456;DHT22;57916;51.996;5.180;2022-09-16T18:49:06;18.30;55.20
70456;DHT22;57916;51.996;5.180;2022-09-16T18:51:37;18.30;56.20
70456;DHT22;57916;51.996;5.180;2022-09-16T18:54:07;18.20;55.30
70456;DHT22;57916;51.996;5.180;2022-09-16T18:56:36;18.20;55.60